createdAt,value
2022-09-07T00:00:26.275Z,16.90
2022-09-07T00:05:28.801Z,16.90
2022-09-07T00:10:30.642Z,16.90
2022-09-07T00:15:32.931Z,16.80
2022-09-07T00:20:35.135Z,16.80
2022-09-07T00:25:41.331Z,16.80
2022-09-07T00:30:43.401Z,16.80
2022-09-07T00:35:46.360Z,16.80
2022-09-07T00:40:48.338Z,16.80
2022-09-07T00:45:50.148Z,16.70
2022-09-07T00:50:57.064Z,16.70
2022-09-07T00:55:59.732Z,16.60
2022-09-07T01:01:01.850Z,16.70
2022-09-07T01:06:23.650Z,16.60
2022-09-07T01:11:25.759Z,16.50
2022-09-07T01:16:39.886Z,16.50
2022-09-07T01:22:03.402Z,16.50
2022-09-07T01:27:44.719Z,16.40
2022-09-07T01:32:55.664Z,16.40
2022-09-07T01:38:17.420Z,16.30
2022-09-07T01:43:32.295Z,16.40
2022-09-07T01:48:37.935Z,16.30
2022-09-07T01:53:50.394Z,16.40
2022-09-07T01:59:03.931Z,16.40
2022-09-07T02:04:05.714Z,16.30
2022-09-07T02:09:22.850Z,16.30
2022-09-07T02:14:36.319Z,16.20
2022-09-07T02:19:46.648Z,16.30
2022-09-07T02:24:54.003Z,16.30
2022-09-07T02:29:55.910Z,16.30
2022-09-07T02:34:57.873Z,16.30
2022-09-07T02:40:00.607Z,16.20
2022-09-07T02:45:05.513Z,16.10
2022-09-07T02:50:26.082Z,16.10
2022-09-07T02:55:59.903Z,16.00
2022-09-07T03:01:44.628Z,16.00
2022-09-07T03:06:58.706Z,15.90
2022-09-07T03:12:03.172Z,15.90
2022-09-07T03:17:05.098Z,15.90
2022-09-07T03:22:07.241Z,15.80
2022-09-07T03:27:09.301Z,15.80
2022-09-07T03:32:11.143Z,15.80
2022-09-07T03:37:13.001Z,15.70
2022-09-07T03:42:14.835Z,15.60
2022-09-07T03:47:17.174Z,15.60
2022-09-07T03:52:19.103Z,15.60
2022-09-07T03:57:20.962Z,15.50
2022-09-07T04:02:22.890Z,15.50
2022-09-07T04:07:24.800Z,15.60
2022-09-07T04:12:26.645Z,15.60
2022-09-07T04:17:28.468Z,15.50
2022-09-07T04:22:30.306Z,15.50
2022-09-07T04:27:32.116Z,15.40
2022-09-07T04:32:34.050Z,15.50
2022-09-07T04:37:35.875Z,15.50
2022-09-07T04:42:37.779Z,15.50
2022-09-07T04:47:39.595Z,15.50
2022-09-07T04:52:41.431Z,15.40
2022-09-07T04:57:43.324Z,15.50
2022-09-07T05:02:45.215Z,15.60
2022-09-07T05:07:47.163Z,15.70
2022-09-07T05:12:48.984Z,15.70
2022-09-07T05:17:51.490Z,15.70
2022-09-07T05:22:59.654Z,15.80
2022-09-07T05:28:01.708Z,15.90
2022-09-07T05:33:04.025Z,16.00
2022-09-07T05:38:05.868Z,16.00
2022-09-07T05:43:09.849Z,16.00
2022-09-07T05:48:11.968Z,16.10
2022-09-07T05:53:13.792Z,16.30
2022-09-07T05:58:16.175Z,16.40
2022-09-07T06:03:18.191Z,16.50
2022-09-07T06:08:20.147Z,16.60
2022-09-07T06:13:22.284Z,16.70
2022-09-07T06:18:24.083Z,16.90
2022-09-07T06:23:25.924Z,17.00
2022-09-07T06:28:32.471Z,17.20
2022-09-07T06:33:35.520Z,17.30
2022-09-07T06:38:38.104Z,17.40
2022-09-07T06:43:44.166Z,17.60
2022-09-07T06:48:47.867Z,17.80
2022-09-07T06:53:50.339Z,18.00
2022-09-07T06:58:55.771Z,18.10
2022-09-07T07:03:57.588Z,18.30
2022-09-07T07:08:59.397Z,18.50
2022-09-07T07:14:01.227Z,18.90
2022-09-07T07:19:03.101Z,19.30
2022-09-07T07:24:08.214Z,19.80
2022-09-07T07:29:10.415Z,20.10
2022-09-07T07:34:12.207Z,20.20
2022-09-07T07:44:36.936Z,20.50
2022-09-07T07:49:38.687Z,20.80
2022-09-07T07:54:40.492Z,21.20
2022-09-07T07:59:42.432Z,21.60
2022-09-07T08:04:44.440Z,21.90
2022-09-07T08:09:47.956Z,22.10
2022-09-07T08:14:49.739Z,21.90
2022-09-07T08:19:52.303Z,21.30
2022-09-07T08:24:54.111Z,21.10
2022-09-07T08:29:55.898Z,21.10
2022-09-07T08:34:59.010Z,20.90
2022-09-07T08:40:00.899Z,20.80
2022-09-07T08:45:11.607Z,20.70
2022-09-07T08:50:22.980Z,20.60
2022-09-07T08:55:29.923Z,20.50
2022-09-07T09:00:31.700Z,20.50
2022-09-07T09:06:08.573Z,20.40
2022-09-07T09:11:22.413Z,20.50
2022-09-07T09:16:42.978Z,20.80
2022-09-07T09:21:45.662Z,20.90
2022-09-07T09:31:58.056Z,20.70
2022-09-07T09:37:00.482Z,20.70
2022-09-07T09:42:17.435Z,20.80
2022-09-07T09:47:36.004Z,21.10
2022-09-07T09:52:49.372Z,21.40
2022-09-07T10:08:59.486Z,22.40
2022-09-07T10:14:01.367Z,22.70
2022-09-07T10:19:03.958Z,23.00
2022-09-07T10:24:05.689Z,23.20
2022-09-07T10:29:17.451Z,23.20
2022-09-07T10:34:37.247Z,23.30
2022-09-07T10:40:03.554Z,23.20
2022-09-07T10:45:08.143Z,23.10
2022-09-07T10:50:29.892Z,23.20
2022-09-07T10:55:36.163Z,23.60
2022-09-07T11:01:18.735Z,23.80
2022-09-07T11:06:27.837Z,24.20
2022-09-07T11:17:13.403Z,24.60
2022-09-07T11:22:27.968Z,24.50
2022-09-07T11:27:48.810Z,24.60
2022-09-07T11:33:00.102Z,24.80
2022-09-07T11:38:23.593Z,25.00
2022-09-07T11:43:31.500Z,25.30
2022-09-07T11:48:42.829Z,25.30
2022-09-07T11:54:01.257Z,25.20
2022-09-07T11:59:18.929Z,25.30
2022-09-07T12:04:27.424Z,25.40
2022-09-07T12:09:56.687Z,25.50
2022-09-07T12:15:25.825Z,25.70
2022-09-07T12:20:48.428Z,25.80
2022-09-07T12:25:51.636Z,25.60
2022-09-07T12:31:01.446Z,25.70
2022-09-07T12:36:26.078Z,25.90
2022-09-07T12:41:48.671Z,26.20
2022-09-07T12:46:56.068Z,26.30
2022-09-07T12:52:33.892Z,26.20
2022-09-07T12:57:41.482Z,26.20
2022-09-07T13:03:04.796Z,26.50
2022-09-07T13:08:32.167Z,26.70
2022-09-07T13:18:56.361Z,26.70
2022-09-07T13:29:49.720Z,26.40
2022-09-07T13:34:57.702Z,26.70
2022-09-07T13:40:02.814Z,27.00
2022-09-07T13:50:36.364Z,27.10
2022-09-07T13:56:18.170Z,27.00
2022-09-07T14:01:26.507Z,26.50
2022-09-07T14:06:32.934Z,26.30
2022-09-07T14:11:49.907Z,26.30
2022-09-07T14:17:00.939Z,26.10
2022-09-07T14:22:25.450Z,25.80
2022-09-07T14:27:41.152Z,25.70
2022-09-07T14:32:44.139Z,25.70
2022-09-07T14:37:47.535Z,25.60
2022-09-07T14:42:52.972Z,25.60
2022-09-07T14:47:56.328Z,25.80
2022-09-07T14:58:23.358Z,25.90
2022-09-07T15:03:35.483Z,25.80
2022-09-07T15:08:37.253Z,25.70
2022-09-07T15:13:44.995Z,25.70
2022-09-07T15:19:02.790Z,25.40
2022-09-07T15:24:04.583Z,25.30
2022-09-07T15:29:08.518Z,25.20
2022-09-07T15:34:16.212Z,25.00
2022-09-07T15:39:25.009Z,25.00
2022-09-07T15:44:28.396Z,24.90
2022-09-07T15:49:30.391Z,25.00
2022-09-07T15:54:35.262Z,24.90
2022-09-07T15:59:38.788Z,24.80
2022-09-07T16:04:41.090Z,24.70
2022-09-07T16:09:42.932Z,24.70
2022-09-07T16:14:44.772Z,24.60
2022-09-07T16:19:46.591Z,24.50
2022-09-07T16:24:48.807Z,24.40
2022-09-07T16:29:51.711Z,24.30
2022-09-07T16:34:53.667Z,24.10
2022-09-07T16:39:56.540Z,23.90
2022-09-07T16:46:02.603Z,23.70
2022-09-07T16:50:20.027Z,23.40
2022-09-07T16:55:21.775Z,23.20
2022-09-07T17:00:23.565Z,22.90
2022-09-07T17:05:25.447Z,22.70
2022-09-07T17:10:28.703Z,22.50
2022-09-07T17:15:34.608Z,22.30
2022-09-07T17:20:36.376Z,22.20
2022-09-07T17:25:38.184Z,21.90
2022-09-07T17:30:40.055Z,21.70
2022-09-07T17:35:41.804Z,21.50
2022-09-07T17:40:44.017Z,21.40
2022-09-07T17:45:45.815Z,21.20
2022-09-07T17:50:47.571Z,21.10
2022-09-07T17:55:49.343Z,21.00
2022-09-07T18:00:51.993Z,20.90
2022-09-07T18:05:55.055Z,20.80
2022-09-07T18:16:35.269Z,20.60
2022-09-07T18:21:38.024Z,20.50
2022-09-07T18:26:39.859Z,20.30
2022-09-07T18:31:41.680Z,20.30
2022-09-07T18:36:43.999Z,20.10
2022-09-07T18:41:45.999Z,20.00
2022-09-07T18:46:47.802Z,19.90
2022-09-07T18:57:11.346Z,19.80
2022-09-07T19:02:14.364Z,19.80
2022-09-07T19:07:16.927Z,19.70
2022-09-07T19:12:18.675Z,19.60
2022-09-07T19:17:20.473Z,19.50
2022-09-07T19:22:22.280Z,19.50
2022-09-07T19:27:24.087Z,19.40
2022-09-07T19:32:25.884Z,19.40
2022-09-07T19:37:28.918Z,19.30
2022-09-07T19:42:30.727Z,19.30
2022-09-07T19:47:33.630Z,19.30
2022-09-07T19:52:35.388Z,19.20
2022-09-07T19:57:37.193Z,19.10
2022-09-07T20:02:39.741Z,19.00
2022-09-07T20:07:41.565Z,18.90
2022-09-07T20:12:44.594Z,18.90
2022-09-07T20:17:47.007Z,18.90
2022-09-07T20:22:48.891Z,18.90
2022-09-07T20:27:50.670Z,18.80
2022-09-07T20:32:52.409Z,18.80
2022-09-07T20:37:54.159Z,18.80
2022-09-07T20:42:55.897Z,18.80
2022-09-07T20:47:57.615Z,18.80
2022-09-07T20:52:59.340Z,18.70
2022-09-07T20:58:01.124Z,18.70
2022-09-07T21:03:02.840Z,18.60
2022-09-07T21:08:04.568Z,18.60
2022-09-07T21:13:06.424Z,18.50
2022-09-07T21:18:15.866Z,18.50
2022-09-07T21:23:17.772Z,18.50
2022-09-07T21:28:19.771Z,18.40
2022-09-07T21:33:21.501Z,18.40
2022-09-07T21:38:23.558Z,18.30
2022-09-07T21:43:25.448Z,18.30
2022-09-07T21:48:27.167Z,18.30
2022-09-07T21:53:29.211Z,18.30
2022-09-07T21:58:31.872Z,18.20
2022-09-07T22:03:33.660Z,18.10
2022-09-07T22:08:37.187Z,18.10
2022-09-07T22:13:39.484Z,18.10
2022-09-07T22:18:43.974Z,18.00
2022-09-07T22:23:48.483Z,18.00
2022-09-07T22:28:50.732Z,18.10
2022-09-07T22:33:54.072Z,18.10
2022-09-07T22:38:58.115Z,18.20
2022-09-07T22:44:00.424Z,18.40
2022-09-07T22:49:02.190Z,18.50
2022-09-07T22:54:04.220Z,18.70
2022-09-07T22:59:07.785Z,18.80
2022-09-07T23:04:10.695Z,18.70
2022-09-07T23:09:15.192Z,18.70
2022-09-07T23:14:19.684Z,18.70
2022-09-07T23:19:21.622Z,18.70
2022-09-07T23:24:23.346Z,18.60
2022-09-07T23:29:25.204Z,18.60
2022-09-07T23:34:26.915Z,18.50
2022-09-07T23:39:28.773Z,18.50
2022-09-07T23:44:30.995Z,18.40
2022-09-07T23:49:32.731Z,18.40
2022-09-07T23:54:34.455Z,18.30
2022-09-07T23:59:36.729Z,18.20
